Weather at Oakville (Trafalgar Memorial Hospital) Heliport

Public forecast

Using degrees Celsius for public forecast. Weather courtesy of forecast.io.

Closest aviation weather report (METAR) to Oakville (Trafalgar Memorial Hospital) Heliport

Closest report is Lester B. Pearson International Airport, 12.3 nm (22.8 km) N. Retrieved 2021/01/21 13:00 UTC (33 minutes ago):

CYYZ 211300Z 23008KT 15SM BKN038 M00/M05 A2951 RMK SC7 SLP002

Closest aviation forecast (TAF) to Oakville (Trafalgar Memorial Hospital) Heliport

Closest forecast is Lester B. Pearson International Airport, 12.3 nm (22.8 km) N. Retrieved 2021/01/21 12:42 UTC (51 minutes ago):

TAF CYYZ 211138Z 2112/2218 21008KT P6SM SCT020 BKN030 TEMPO 2112/2117 P6SM -SHSN BKN020 BECMG 2114/2116 24015G25KT FM211700 26015G30KT P6SM -SHSN OVC030 PROB30 2117/2123 2SM -SHSN BECMG 2123/2201 27012G22KT FM220400 27012G22KT 3SM -SHSN OVC020 PROB40 2204/2211 3/4SM -SHSN OVC008 FM221100 32008KT P6SM BKN050 BECMG 2214/2216 30015KT RMK NXT FCST BY 211500Z